Terminal Aerodrome Forecast
Issued by NWS Mt. Holly, NJ

Home | Current Version | Previous Version | Text Only | Print | Product List | Glossary On
Versions: 1 2 3 4 5 6 7 8 9 10 11 12 13 14 15 16 17 18
782
FTUS41 KPHI 270107 AAA
TAFRDG
TAF AMD
KRDG 270107Z 2701/2724 09008KT 3SM BR OVC008
      TEMPO 2701/2704 5SM BR OVC005
     FM270400 10006KT 2SM BR VCSH OVC005
      TEMPO 2706/2710 3SM -SHRA BR
     FM271000 10004KT 5SM -SHRA BR OVC010
     FM271600 21006KT P6SM VCSH SCT025 BKN050
     FM272100 21006KT P6SM VCSH BKN050=

USA.gov is the U.S. government's official web portal to all federal, state and local government web resources and services.